Time,TemperatureF,DewpointF,PressureIn,WindDirection,WindDirectionDegrees,WindSpeedMPH,WindSpeedGustMPH,Humidity,HourlyPrecipIn,Conditions,Clouds,dailyrainin,SoftwareType,DateUTC
2013-06-07 00:01:00,67.0,47.2,29.11,NE,45,0.0,0.0,49,0.00,RA,OVC,0.00,WeatherDisplay:10.37,2013-06-07 04:01:00,
2013-06-07 00:06:00,67.0,46.1,29.11,NE,45,0.0,0.0,47,0.00,RA,OVC,0.00,WeatherDisplay:10.37,2013-06-07 04:06:00,
2013-06-07 00:11:00,67.0,46.1,29.11,NE,45,0.0,0.0,47,0.00,CLR,OVC,0.00,WeatherDisplay:10.37,2013-06-07 04:11:00,
2013-06-07 00:16:00,67.0,46.1,29.11,NE,45,0.0,0.0,47,0.00,CLR,OVC,0.00,WeatherDisplay:10.37,2013-06-07 04:16:00,
2013-06-07 00:22:00,67.0,46.1,29.11,NE,45,0.0,0.0,47,0.00,CLR,OVC,0.00,WeatherDisplay:10.37,2013-06-07 04:22:00,
2013-06-07 00:27:00,67.0,46.1,29.11,NE,45,0.0,0.0,47,0.00,CLR,OVC,0.00,WeatherDisplay:10.37,2013-06-07 04:27:00,
2013-06-07 00:32:00,67.0,46.1,29.10,South,180,1.2,1.2,47,0.00,CLR,OVC,0.00,WeatherDisplay:10.37,2013-06-07 04:32:00,
2013-06-07 00:37:00,67.0,46.1,29.10,South,180,0.0,0.0,47,0.00,CLR,OVC,0.00,WeatherDisplay:10.37,2013-06-07 04:37:00,
2013-06-07 00:42:00,67.0,46.1,29.10,South,180,0.0,0.0,47,0.00,CLR,OVC,0.00,WeatherDisplay:10.37,2013-06-07 04:42:00,
2013-06-07 00:47:00,67.0,46.1,29.10,South,180,0.0,0.0,47,0.00,CLR,OVC,0.00,WeatherDisplay:10.37,2013-06-07 04:47:00,
2013-06-07 00:52:00,67.0,46.1,29.10,South,180,0.0,0.0,47,0.00,CLR,OVC,0.00,WeatherDisplay:10.37,2013-06-07 04:52:00,
2013-06-07 00:57:00,67.0,46.1,29.10,South,180,0.0,0.0,47,0.00,CLR,OVC,0.00,WeatherDisplay:10.37,2013-06-07 04:57:00,
2013-06-07 01:02:00,67.0,46.1,29.10,SSE,157,0.0,0.0,47,0.00,CLR,OVC,0.00,WeatherDisplay:10.37,2013-06-07 05:02:00,
2013-06-07 01:07:00,67.0,46.1,29.10,ENE,67,0.0,0.0,47,0.00,CLR,OVC,0.00,WeatherDisplay:10.37,2013-06-07 05:07:00,
2013-06-07 01:12:00,67.0,46.1,29.10,SSW,202,0.0,0.0,47,0.00,CLR,OVC,0.00,WeatherDisplay:10.37,2013-06-07 05:12:00,
2013-06-07 01:17:00,67.0,46.1,29.10,SSW,202,0.0,0.0,47,0.01,RA,OVC,0.01,WeatherDisplay:10.37,2013-06-07 05:17:00,
2013-06-07 01:22:00,67.0,46.1,29.09,SSW,202,0.0,0.0,47,0.01,RA,OVC,0.01,WeatherDisplay:10.37,2013-06-07 05:22:00,
2013-06-07 01:27:00,67.0,46.1,29.09,SSW,202,0.0,0.0,47,0.01,,OVC,0.01,WeatherDisplay:10.37,2013-06-07 05:27:00,
2013-06-07 01:32:00,67.0,46.1,29.09,SSW,202,0.0,0.0,47,0.01,CLR,OVC,0.01,WeatherDisplay:10.37,2013-06-07 05:32:00,
2013-06-07 01:37:00,67.0,46.1,29.09,South,180,0.0,0.0,47,0.01,CLR,OVC,0.01,WeatherDisplay:10.37,2013-06-07 05:37:00,
2013-06-07 01:42:00,67.0,46.1,29.09,South,180,0.0,0.0,47,0.02,RA,OVC,0.02,WeatherDisplay:10.37,2013-06-07 05:42:00,
2013-06-07 01:47:00,67.0,46.1,29.09,South,180,0.0,0.0,47,0.02,RA,OVC,0.02,WeatherDisplay:10.37,2013-06-07 05:47:00,
2013-06-07 01:52:00,67.0,46.1,29.08,South,180,0.0,0.0,47,0.02,,OVC,0.02,WeatherDisplay:10.37,2013-06-07 05:52:00,
2013-06-07 01:57:00,67.0,46.1,29.08,South,180,0.0,0.0,47,0.02,CLR,OVC,0.02,WeatherDisplay:10.37,2013-06-07 05:57:00,
2013-06-07 02:02:00,67.0,46.1,29.08,South,180,0.0,0.0,47,0.03,RA,OVC,0.03,WeatherDisplay:10.37,2013-06-07 06:02:00,
2013-06-07 02:07:00,67.0,46.1,29.08,South,180,0.0,0.0,47,0.03,RA,OVC,0.03,WeatherDisplay:10.37,2013-06-07 06:07:00,
2013-06-07 02:12:00,67.0,45.5,29.08,South,180,0.0,0.0,46,0.04,RA,OVC,0.04,WeatherDisplay:10.37,2013-06-07 06:12:00,
2013-06-07 02:17:00,67.0,45.5,29.08,South,180,0.0,0.0,46,0.03,RA,OVC,0.04,WeatherDisplay:10.37,2013-06-07 06:17:00,
2013-06-07 02:22:00,67.0,45.5,29.07,South,180,0.0,0.0,46,0.03,CLR,OVC,0.05,WeatherDisplay:10.37,2013-06-07 06:22:00,
2013-06-07 02:27:00,67.0,45.5,29.07,South,180,0.0,0.0,46,0.04,RA,OVC,0.05,WeatherDisplay:10.37,2013-06-07 06:27:00,
2013-06-07 02:32:00,67.0,45.5,29.07,South,180,0.0,0.0,46,0.04,RA,OVC,0.06,WeatherDisplay:10.37,2013-06-07 06:32:00,
2013-06-07 02:37:00,67.0,45.5,29.07,South,180,0.0,0.0,46,0.05,RA,OVC,0.06,WeatherDisplay:10.37,2013-06-07 06:37:00,
2013-06-07 02:42:00,67.0,45.5,29.06,South,180,0.0,0.0,46,0.04,RA,OVC,0.06,WeatherDisplay:10.37,2013-06-07 06:42:00,
2013-06-07 02:47:00,67.0,45.5,29.06,South,180,0.0,0.0,46,0.05,RA,OVC,0.07,WeatherDisplay:10.37,2013-06-07 06:47:00,
2013-06-07 02:52:00,67.0,45.5,29.05,South,180,0.0,0.0,46,0.05,RA,OVC,0.07,WeatherDisplay:10.37,2013-06-07 06:52:00,
2013-06-07 02:58:00,67.0,46.1,29.05,South,180,0.0,0.0,47,0.06,RA,OVC,0.08,WeatherDisplay:10.37,2013-06-07 06:58:00,
2013-06-07 03:03:00,67.0,45.5,29.05,South,180,0.0,0.0,46,0.05,RA,OVC,0.08,WeatherDisplay:10.37,2013-06-07 07:03:00,
2013-06-07 03:08:00,67.0,45.5,29.05,South,180,0.0,0.0,46,0.06,RA,OVC,0.09,WeatherDisplay:10.37,2013-06-07 07:08:00,
2013-06-07 03:13:00,67.0,45.5,29.04,South,180,0.0,0.0,46,0.06,RA,OVC,0.10,WeatherDisplay:10.37,2013-06-07 07:13:00,
2013-06-07 03:18:00,67.0,46.1,29.04,South,180,0.0,0.0,47,0.06,RA,OVC,0.10,WeatherDisplay:10.37,2013-06-07 07:18:00,
2013-06-07 03:23:00,67.0,45.5,29.03,South,180,0.0,0.0,46,0.06,,OVC,0.10,WeatherDisplay:10.37,2013-06-07 07:23:00,
2013-06-07 03:28:00,67.0,46.1,29.03,South,180,0.0,0.0,47,0.06,RA,OVC,0.11,WeatherDisplay:10.37,2013-06-07 07:28:00,
2013-06-07 03:33:00,67.0,45.5,29.03,South,180,0.0,0.0,46,0.05,RA,OVC,0.11,WeatherDisplay:10.37,2013-06-07 07:33:00,
2013-06-07 03:38:00,67.0,45.5,29.03,South,180,0.0,0.0,46,0.06,RA,OVC,0.12,WeatherDisplay:10.37,2013-06-07 07:38:00,
2013-06-07 03:43:00,67.0,45.5,29.03,South,180,0.0,0.0,46,0.06,RA,OVC,0.12,WeatherDisplay:10.37,2013-06-07 07:43:00,
2013-06-07 03:48:00,67.0,46.1,29.03,South,180,0.0,0.0,47,0.05,CLR,OVC,0.12,WeatherDisplay:10.37,2013-06-07 07:48:00,
2013-06-07 03:53:00,67.0,46.1,29.02,South,180,0.0,0.0,47,0.05,CLR,OVC,0.13,WeatherDisplay:10.37,2013-06-07 07:53:00,
2013-06-07 03:58:00,67.0,46.1,29.02,ESE,112,0.0,0.0,47,0.06,RA,OVC,0.14,WeatherDisplay:10.37,2013-06-07 07:58:00,
2013-06-07 04:03:00,67.0,46.1,29.01,SE,135,0.0,0.0,47,0.07,RA,OVC,0.15,WeatherDisplay:10.37,2013-06-07 08:03:00,
2013-06-07 04:08:00,67.0,46.1,29.01,SE,135,0.0,0.0,47,0.06,RA,OVC,0.15,WeatherDisplay:10.37,2013-06-07 08:08:00,
2013-06-07 04:13:00,67.0,46.1,29.01,SE,135,0.0,0.0,47,0.05,,OVC,0.15,WeatherDisplay:10.37,2013-06-07 08:13:00,
2013-06-07 04:18:00,67.0,46.1,29.01,SE,135,0.0,0.0,47,0.05,CLR,OVC,0.15,WeatherDisplay:10.37,2013-06-07 08:18:00,
2013-06-07 04:23:00,67.0,46.1,29.00,SE,135,0.0,0.0,47,0.06,RA,OVC,0.16,WeatherDisplay:10.37,2013-06-07 08:23:00,
2013-06-07 04:28:00,67.0,46.1,29.00,SE,135,0.0,0.0,47,0.05,RA,OVC,0.16,WeatherDisplay:10.37,2013-06-07 08:28:00,
2013-06-07 04:33:00,67.0,46.1,29.00,SE,135,0.0,0.0,47,0.05,CLR,OVC,0.16,WeatherDisplay:10.37,2013-06-07 08:33:00,
2013-06-07 04:38:00,67.0,46.1,29.00,SE,135,0.0,0.0,47,0.05,RA,OVC,0.17,WeatherDisplay:10.37,2013-06-07 08:38:00,
2013-06-07 04:43:00,67.0,46.1,29.00,SE,135,0.0,0.0,47,0.06,RA,OVC,0.18,WeatherDisplay:10.37,2013-06-07 08:43:00,
2013-06-07 04:48:00,67.0,46.1,29.00,SE,135,0.0,0.0,47,0.06,RA,OVC,0.18,WeatherDisplay:10.37,2013-06-07 08:48:00,
2013-06-07 04:53:00,67.0,46.1,28.99,SE,135,0.0,0.0,47,0.06,,OVC,0.18,WeatherDisplay:10.37,2013-06-07 08:53:00,
2013-06-07 04:58:00,67.0,46.1,28.99,SE,135,0.0,0.0,47,0.05,RA,OVC,0.19,WeatherDisplay:10.37,2013-06-07 08:58:00,
2013-06-07 05:03:00,67.0,46.1,28.99,SE,135,0.0,0.0,47,0.05,RA,OVC,0.20,WeatherDisplay:10.37,2013-06-07 09:03:00,
2013-06-07 05:08:00,67.0,46.1,28.99,SE,135,0.0,0.0,47,0.06,RA,OVC,0.21,WeatherDisplay:10.37,2013-06-07 09:08:00,
2013-06-07 05:13:00,67.0,46.1,28.98,SE,135,0.0,0.0,47,0.07,RA,OVC,0.23,WeatherDisplay:10.37,2013-06-07 09:13:00,
2013-06-07 05:18:00,67.0,46.1,28.98,SE,135,0.0,0.0,47,0.13,RA,OVC,0.28,WeatherDisplay:10.37,2013-06-07 09:18:00,
2013-06-07 05:23:00,67.0,46.1,28.98,SE,135,0.0,0.0,47,0.15,RA,OVC,0.32,WeatherDisplay:10.37,2013-06-07 09:23:00,
2013-06-07 05:28:00,67.0,46.1,28.98,SE,135,0.0,0.0,47,0.19,RA,OVC,0.35,WeatherDisplay:10.37,2013-06-07 09:28:00,
2013-06-07 05:33:00,67.0,46.1,28.97,SE,135,0.0,0.0,47,0.22,RA,OVC,0.38,WeatherDisplay:10.37,2013-06-07 09:33:00,
2013-06-07 05:38:00,66.0,45.7,28.97,SE,135,0.0,0.0,48,0.24,RA,OVC,0.41,WeatherDisplay:10.37,2013-06-07 09:38:00,
2013-06-07 05:43:00,66.0,45.7,28.97,SE,135,0.0,0.0,48,0.29,RA,OVC,0.48,WeatherDisplay:10.37,2013-06-07 09:43:00,
2013-06-07 05:48:00,66.0,46.3,28.97,SE,135,0.0,0.0,49,0.33,RA,OVC,0.51,WeatherDisplay:10.37,2013-06-07 09:48:00,
2013-06-07 05:53:00,66.0,46.3,28.97,SE,135,0.0,0.0,49,0.36,RA,OVC,0.54,WeatherDisplay:10.37,2013-06-07 09:53:00,
2013-06-07 05:58:00,66.0,46.3,28.97,SE,135,0.0,0.0,49,0.37,RA,OVC,0.56,WeatherDisplay:10.37,2013-06-07 09:58:00,
2013-06-07 06:03:00,66.0,46.3,28.97,SE,135,0.0,0.0,49,0.41,RA,OVC,0.62,WeatherDisplay:10.37,2013-06-07 10:03:00,
2013-06-07 06:08:00,66.0,46.3,28.97,SE,135,0.0,0.0,49,0.44,RA,OVC,0.66,WeatherDisplay:10.37,2013-06-07 10:08:00,
2013-06-07 06:13:00,66.0,46.3,28.97,SE,135,0.0,0.0,49,0.45,RA,OVC,0.68,WeatherDisplay:10.37,2013-06-07 10:13:00,
2013-06-07 06:18:00,66.0,46.3,28.97,SE,135,0.0,0.0,49,0.42,RA,OVC,0.70,WeatherDisplay:10.37,2013-06-07 10:18:00,
2013-06-07 06:23:00,66.0,46.3,28.97,SE,135,0.0,0.0,49,0.41,RA,OVC,0.72,WeatherDisplay:10.37,2013-06-07 10:23:00,
2013-06-07 06:28:00,66.0,46.3,28.97,SE,135,0.0,0.0,49,0.38,RA,OVC,0.73,WeatherDisplay:10.37,2013-06-07 10:28:00,
2013-06-07 06:33:00,66.0,46.3,28.97,SE,135,0.0,0.0,49,0.36,RA,OVC,0.75,WeatherDisplay:10.37,2013-06-07 10:33:00,
2013-06-07 06:38:00,66.0,46.3,28.97,SE,135,0.0,0.0,49,0.35,RA,OVC,0.77,WeatherDisplay:10.37,2013-06-07 10:38:00,
2013-06-07 06:43:00,66.0,46.3,28.96,SE,135,0.0,0.0,49,0.31,RA,OVC,0.78,WeatherDisplay:10.37,2013-06-07 10:43:00,
2013-06-07 06:48:00,66.0,46.3,28.96,SE,135,0.0,0.0,49,0.28,RA,OVC,0.79,WeatherDisplay:10.37,2013-06-07 10:48:00,
2013-06-07 06:53:00,66.0,46.3,28.95,SE,135,0.0,0.0,49,0.26,RA,OVC,0.80,WeatherDisplay:10.37,2013-06-07 10:53:00,
2013-06-07 06:58:00,66.0,46.3,28.95,SE,135,0.0,0.0,49,0.25,RA,OVC,0.81,WeatherDisplay:10.37,2013-06-07 10:58:00,
2013-06-07 07:03:00,66.0,46.3,28.95,SE,135,0.0,0.0,49,0.21,RA,OVC,0.82,WeatherDisplay:10.37,2013-06-07 11:03:00,
2013-06-07 07:08:00,66.0,46.3,28.95,SE,135,0.0,0.0,49,0.19,RA,OVC,0.84,WeatherDisplay:10.37,2013-06-07 11:08:00,
2013-06-07 07:13:00,66.0,46.3,28.95,SE,135,0.0,0.0,49,0.18,RA,OVC,0.85,WeatherDisplay:10.37,2013-06-07 11:13:00,
2013-06-07 07:18:00,66.0,46.3,28.95,SE,135,0.0,0.0,49,0.16,RA,OVC,0.86,WeatherDisplay:10.37,2013-06-07 11:18:00,
2013-06-07 07:23:00,66.0,46.3,28.95,SE,135,0.0,0.0,49,0.14,RA,OVC,0.86,WeatherDisplay:10.37,2013-06-07 11:23:00,
2013-06-07 07:28:00,66.0,46.3,28.95,SE,135,0.0,0.0,49,0.13,,OVC,0.86,WeatherDisplay:10.37,2013-06-07 11:28:00,
2013-06-07 07:33:00,66.0,46.3,28.94,SE,135,0.0,0.0,49,0.13,RA,OVC,0.87,WeatherDisplay:10.37,2013-06-07 11:33:00,
2013-06-07 07:38:00,66.0,46.3,28.94,SE,135,0.0,0.0,49,0.11,RA,OVC,0.87,WeatherDisplay:10.37,2013-06-07 11:38:00,
2013-06-07 07:43:00,66.0,46.3,28.93,SE,135,0.0,0.0,49,0.09,CLR,OVC,0.87,WeatherDisplay:10.37,2013-06-07 11:43:00,
2013-06-07 07:48:00,66.0,46.3,28.93,SE,135,0.0,0.0,49,0.09,RA,OVC,0.88,WeatherDisplay:10.37,2013-06-07 11:48:00,
2013-06-07 07:53:00,66.0,46.3,28.93,SE,135,0.0,0.0,49,0.08,RA,OVC,0.88,WeatherDisplay:10.37,2013-06-07 11:53:00,
2013-06-07 07:58:00,66.0,46.3,28.93,SE,135,0.0,0.0,49,0.07,CLR,OVC,0.88,WeatherDisplay:10.37,2013-06-07 11:58:00,
2013-06-07 08:03:00,66.0,46.3,28.93,SE,135,0.0,0.0,49,0.06,CLR,OVC,0.88,WeatherDisplay:10.37,2013-06-07 12:03:00,
2013-06-07 08:08:00,66.0,46.3,28.93,SE,135,0.0,0.0,49,0.04,CLR,OVC,0.88,WeatherDisplay:10.37,2013-06-07 12:08:00,
2013-06-07 08:13:00,66.0,45.7,28.93,SE,135,0.0,0.0,48,0.03,CLR,OVC,0.88,WeatherDisplay:10.37,2013-06-07 12:13:00,
2013-06-07 08:18:00,66.0,45.7,28.93,SE,135,0.0,0.0,48,0.02,CLR,OVC,0.88,WeatherDisplay:10.37,2013-06-07 12:18:00,
2013-06-07 08:23:00,66.0,45.7,28.93,SE,135,0.0,0.0,48,0.02,CLR,OVC,0.88,WeatherDisplay:10.37,2013-06-07 12:23:00,
2013-06-07 08:29:00,66.0,45.7,28.93,SE,135,3.5,3.5,48,0.02,CLR,OVC,0.88,WeatherDisplay:10.37,2013-06-07 12:29:00,
2013-06-07 08:34:00,66.0,45.7,28.93,SE,135,0.0,0.0,48,0.01,CLR,OVC,0.88,WeatherDisplay:10.37,2013-06-07 12:34:00,
2013-06-07 08:39:00,67.0,47.2,28.93,SE,135,0.0,0.0,49,0.01,CLR,OVC,0.88,WeatherDisplay:10.37,2013-06-07 12:39:00,
2013-06-07 08:44:00,67.0,46.7,28.93,ESE,112,0.0,0.0,48,0.01,CLR,OVC,0.88,WeatherDisplay:10.37,2013-06-07 12:44:00,
2013-06-07 08:49:00,67.0,46.7,28.93,ESE,112,0.0,0.0,48,0.00,CLR,OVC,0.88,WeatherDisplay:10.37,2013-06-07 12:49:00,
2013-06-07 08:54:00,67.0,46.1,28.92,ESE,112,0.0,0.0,47,0.00,CLR,OVC,0.88,WeatherDisplay:10.37,2013-06-07 12:54:00,
2013-06-07 08:59:00,67.0,46.1,28.92,ESE,112,0.0,0.0,47,0.00,CLR,OVC,0.88,WeatherDisplay:10.37,2013-06-07 12:59:00,
2013-06-07 09:04:00,67.0,46.1,28.93,ESE,112,0.0,0.0,47,0.00,CLR,OVC,0.88,WeatherDisplay:10.37,2013-06-07 13:04:00,
2013-06-07 09:09:00,67.0,46.1,28.93,SE,135,0.0,0.0,47,0.00,CLR,OVC,0.88,WeatherDisplay:10.37,2013-06-07 13:09:00,
2013-06-07 09:14:00,68.0,47.0,28.92,SE,135,0.0,0.0,47,0.00,CLR,OVC,0.88,WeatherDisplay:10.37,2013-06-07 13:14:00,
2013-06-07 09:19:00,69.0,49.6,28.92,SE,135,0.0,0.0,50,0.00,CLR,OVC,0.88,WeatherDisplay:10.37,2013-06-07 13:19:00,
2013-06-07 09:24:00,69.0,47.4,28.92,SE,135,0.0,0.0,46,0.00,CLR,OVC,0.88,WeatherDisplay:10.37,2013-06-07 13:24:00,
2013-06-07 09:29:00,69.0,46.8,28.92,SE,135,2.3,2.3,45,0.00,CLR,OVC,0.88,WeatherDisplay:10.37,2013-06-07 13:29:00,
2013-06-07 09:34:00,69.0,45.6,28.92,SE,135,0.0,0.0,43,0.00,CLR,OVC,0.88,WeatherDisplay:10.37,2013-06-07 13:34:00,
2013-06-07 09:39:00,69.0,44.9,28.92,SE,135,0.0,0.0,42,0.00,CLR,OVC,0.88,WeatherDisplay:10.37,2013-06-07 13:39:00,
2013-06-07 09:44:00,69.0,44.9,28.91,SE,135,0.0,0.0,42,0.00,CLR,OVC,0.88,WeatherDisplay:10.37,2013-06-07 13:44:00,
2013-06-07 09:49:00,70.0,46.5,28.91,SE,135,0.0,0.0,43,0.00,CLR,OVC,0.88,WeatherDisplay:10.37,2013-06-07 13:49:00,
2013-06-07 09:54:00,70.0,45.8,28.91,SE,135,0.0,0.0,42,0.00,CLR,OVC,0.88,WeatherDisplay:10.37,2013-06-07 13:54:00,
2013-06-07 09:59:00,69.0,44.3,28.91,SE,135,0.0,0.0,41,0.00,CLR,OVC,0.88,WeatherDisplay:10.37,2013-06-07 13:59:00,
2013-06-07 10:04:00,69.0,43.7,28.91,SE,135,0.0,0.0,40,0.00,CLR,OVC,0.88,WeatherDisplay:10.37,2013-06-07 14:04:00,
2013-06-07 10:09:00,69.0,44.3,28.91,SE,135,0.0,0.0,41,0.00,CLR,OVC,0.88,WeatherDisplay:10.37,2013-06-07 14:09:00,
2013-06-07 10:14:00,69.0,44.3,28.90,SE,135,0.0,0.0,41,0.00,CLR,OVC,0.88,WeatherDisplay:10.37,2013-06-07 14:14:00,
2013-06-07 10:19:00,70.0,45.2,28.90,SE,135,0.0,0.0,41,0.00,CLR,OVC,0.88,WeatherDisplay:10.37,2013-06-07 14:19:00,
2013-06-07 10:24:00,70.0,45.2,28.89,SE,135,0.0,0.0,41,0.00,CLR,OVC,0.88,WeatherDisplay:10.37,2013-06-07 14:24:00,
2013-06-07 10:29:00,70.0,45.2,28.89,SE,135,0.0,0.0,41,0.00,CLR,OVC,0.88,WeatherDisplay:10.37,2013-06-07 14:29:00,
2013-06-07 10:34:00,70.0,45.2,28.89,SE,135,0.0,0.0,41,0.00,CLR,OVC,0.88,WeatherDisplay:10.37,2013-06-07 14:34:00,
2013-06-07 10:39:00,70.0,45.2,28.89,SE,135,0.0,0.0,41,0.00,CLR,OVC,0.88,WeatherDisplay:10.37,2013-06-07 14:39:00,
2013-06-07 10:44:00,70.0,45.2,28.88,SE,135,0.0,0.0,41,0.01,RA,OVC,0.89,WeatherDisplay:10.37,2013-06-07 14:44:00,
2013-06-07 10:49:00,70.0,45.2,28.88,SE,135,0.0,0.0,41,0.01,RA,OVC,0.89,WeatherDisplay:10.37,2013-06-07 14:49:00,
2013-06-07 10:54:00,70.0,45.2,28.87,SE,135,0.0,0.0,41,0.01,,OVC,0.89,WeatherDisplay:10.37,2013-06-07 14:54:00,
2013-06-07 10:59:00,70.0,45.2,28.87,SE,135,0.0,0.0,41,0.01,CLR,OVC,0.89,WeatherDisplay:10.37,2013-06-07 14:59:00,
2013-06-07 11:04:00,70.0,45.2,28.88,SE,135,1.2,1.2,41,0.01,CLR,OVC,0.89,WeatherDisplay:10.37,2013-06-07 15:04:00,
2013-06-07 11:09:00,69.0,43.7,28.88,SE,135,0.0,0.0,40,0.08,RA,OVC,0.97,WeatherDisplay:10.37,2013-06-07 15:09:00,
2013-06-07 11:14:00,69.0,44.3,28.87,SE,135,0.0,0.0,41,0.10,RA,OVC,0.98,WeatherDisplay:10.37,2013-06-07 15:14:00,
2013-06-07 11:19:00,69.0,43.7,28.87,SE,135,0.0,0.0,40,0.10,RA,OVC,0.98,WeatherDisplay:10.37,2013-06-07 15:19:00,
2013-06-07 11:24:00,69.0,43.7,28.87,SE,135,0.0,0.0,40,0.11,RA,OVC,0.99,WeatherDisplay:10.37,2013-06-07 15:24:00,
2013-06-07 11:29:00,69.0,43.7,28.87,SE,135,0.0,0.0,40,0.12,RA,OVC,1.00,WeatherDisplay:10.37,2013-06-07 15:29:00,
2013-06-07 11:34:00,69.0,43.0,28.87,SE,135,0.0,0.0,39,0.12,RA,OVC,1.00,WeatherDisplay:10.37,2013-06-07 15:34:00,
2013-06-07 11:39:00,69.0,43.7,28.87,SE,135,0.0,0.0,40,0.12,CLR,OVC,1.01,WeatherDisplay:10.37,2013-06-07 15:39:00,
2013-06-07 11:44:00,69.0,43.7,28.86,SE,135,0.0,0.0,40,0.12,RA,OVC,1.01,WeatherDisplay:10.37,2013-06-07 15:44:00,
2013-06-07 11:49:00,69.0,43.0,28.86,SE,135,0.0,0.0,39,0.12,RA,OVC,1.01,WeatherDisplay:10.37,2013-06-07 15:49:00,
2013-06-07 11:54:00,69.0,43.0,28.85,SE,135,0.0,0.0,39,0.12,CLR,OVC,1.01,WeatherDisplay:10.37,2013-06-07 15:54:00,
2013-06-07 11:59:00,70.0,43.9,28.85,SE,135,0.0,0.0,39,0.12,CLR,OVC,1.01,WeatherDisplay:10.37,2013-06-07 15:59:00,
2013-06-07 12:04:00,70.0,43.9,28.85,SE,135,0.0,0.0,39,0.12,CLR,OVC,1.01,WeatherDisplay:10.37,2013-06-07 16:04:00,
2013-06-07 12:09:00,69.0,43.0,28.85,SE,135,0.0,0.0,39,0.05,CLR,OVC,1.01,WeatherDisplay:10.37,2013-06-07 16:09:00,
2013-06-07 12:14:00,69.0,43.0,28.85,SE,135,0.0,0.0,39,0.03,CLR,OVC,1.01,WeatherDisplay:10.37,2013-06-07 16:14:00,
2013-06-07 12:19:00,69.0,43.0,28.85,SE,135,0.0,0.0,39,0.03,CLR,OVC,1.01,WeatherDisplay:10.37,2013-06-07 16:19:00,
2013-06-07 12:24:00,69.0,43.0,28.85,SE,135,0.0,0.0,39,0.02,CLR,OVC,1.02,WeatherDisplay:10.37,2013-06-07 16:24:00,
2013-06-07 12:29:00,69.0,43.0,28.85,SE,135,0.0,0.0,39,0.02,RA,OVC,1.02,WeatherDisplay:10.37,2013-06-07 16:29:00,
2013-06-07 12:34:00,69.0,43.0,28.84,SE,135,0.0,0.0,39,0.02,RA,OVC,1.02,WeatherDisplay:10.37,2013-06-07 16:34:00,
2013-06-07 12:39:00,69.0,42.3,28.84,ESE,112,0.0,0.0,38,0.03,RA,OVC,1.04,WeatherDisplay:10.37,2013-06-07 16:39:00,
2013-06-07 12:44:00,69.0,43.0,28.84,NE,45,0.0,0.0,39,0.03,RA,OVC,1.05,WeatherDisplay:10.37,2013-06-07 16:44:00,
2013-06-07 12:49:00,69.0,43.0,28.84,East,90,0.0,0.0,39,0.06,RA,OVC,1.08,WeatherDisplay:10.37,2013-06-07 16:49:00,
2013-06-07 12:54:00,69.0,43.0,28.84,East,90,0.0,0.0,39,0.08,RA,OVC,1.10,WeatherDisplay:10.37,2013-06-07 16:54:00,
2013-06-07 12:59:00,69.0,43.0,28.84,ENE,67,0.0,0.0,39,0.10,RA,OVC,1.11,WeatherDisplay:10.37,2013-06-07 16:59:00,
2013-06-07 13:04:00,68.0,42.1,28.83,ENE,67,0.0,0.0,39,0.14,RA,OVC,1.16,WeatherDisplay:10.37,2013-06-07 17:04:00,
2013-06-07 13:09:00,68.0,42.1,28.83,North,360,0.0,0.0,39,0.17,RA,OVC,1.18,WeatherDisplay:10.37,2013-06-07 17:09:00,
2013-06-07 13:14:00,68.0,42.8,28.83,NE,45,0.0,0.1,40,0.23,RA,OVC,1.25,WeatherDisplay:10.37,2013-06-07 17:14:00,
2013-06-07 13:19:00,68.0,42.8,28.83,NW,315,0.0,0.0,40,0.27,RA,OVC,1.28,WeatherDisplay:10.37,2013-06-07 17:19:00,
2013-06-07 13:24:00,68.0,42.8,28.82,SE,135,0.0,0.0,40,0.29,RA,OVC,1.30,WeatherDisplay:10.37,2013-06-07 17:24:00,
2013-06-07 13:29:00,68.0,42.8,28.82,SE,135,0.0,0.0,40,0.29,RA,OVC,1.31,WeatherDisplay:10.37,2013-06-07 17:29:00,
2013-06-07 13:34:00,68.0,42.8,28.81,North,360,0.0,0.0,40,0.29,RA,OVC,1.31,WeatherDisplay:10.37,2013-06-07 17:34:00,
2013-06-07 13:39:00,68.0,42.8,28.81,NE,45,0.0,0.0,40,0.29,RA,OVC,1.32,WeatherDisplay:10.37,2013-06-07 17:39:00,
2013-06-07 13:44:00,68.0,42.8,28.81,NNW,337,0.0,0.0,40,0.28,RA,OVC,1.32,WeatherDisplay:10.37,2013-06-07 17:44:00,
2013-06-07 13:50:00,68.0,42.8,28.81,NNE,22,0.0,0.0,40,0.25,CLR,OVC,1.32,WeatherDisplay:10.37,2013-06-07 17:50:00,
2013-06-07 13:55:00,68.0,42.8,28.81,NE,45,0.0,0.0,40,0.23,CLR,OVC,1.32,WeatherDisplay:10.37,2013-06-07 17:55:00,
2013-06-07 14:00:00,68.0,43.4,28.81,North,360,0.0,0.0,41,0.21,CLR,OVC,1.32,WeatherDisplay:10.37,2013-06-07 18:00:00,
2013-06-07 14:05:00,68.0,43.4,28.80,NE,45,0.0,0.0,41,0.17,RA,OVC,1.33,WeatherDisplay:10.37,2013-06-07 18:05:00,
2013-06-07 14:12:00,68.0,43.4,28.81,NE,45,0.0,0.0,41,0.15,RA,OVC,1.35,WeatherDisplay:10.37,2013-06-07 18:12:00,
2013-06-07 14:17:00,68.0,43.4,28.81,NW,315,2.3,2.3,41,0.10,RA,OVC,1.36,WeatherDisplay:10.37,2013-06-07 18:17:00,
2013-06-07 14:22:00,68.0,43.4,28.82,ENE,67,0.0,0.0,41,0.09,RA,OVC,1.38,WeatherDisplay:10.37,2013-06-07 18:22:00,
2013-06-07 14:27:00,68.0,43.4,28.82,NNW,337,0.0,0.5,41,0.09,RA,OVC,1.39,WeatherDisplay:10.37,2013-06-07 18:27:00,
2013-06-07 14:32:00,68.0,43.4,28.82,NW,315,0.0,0.0,41,0.09,RA,OVC,1.41,WeatherDisplay:10.37,2013-06-07 18:32:00,
2013-06-07 14:37:00,68.0,43.4,28.82,NW,315,0.0,0.0,41,0.11,RA,OVC,1.44,WeatherDisplay:10.37,2013-06-07 18:37:00,
2013-06-07 14:43:00,68.0,43.4,28.83,ENE,67,0.0,0.3,41,0.14,RA,OVC,1.47,WeatherDisplay:10.37,2013-06-07 18:43:00,
2013-06-07 14:48:00,68.0,43.4,28.83,NNW,337,0.0,0.4,41,0.16,RA,OVC,1.48,WeatherDisplay:10.37,2013-06-07 18:48:00,
2013-06-07 14:53:00,68.0,43.4,28.81,WNW,292,0.0,0.0,41,0.18,RA,OVC,1.50,WeatherDisplay:10.37,2013-06-07 18:53:00,
2013-06-07 14:58:00,68.0,44.0,28.81,ENE,67,0.0,0.0,42,0.18,RA,OVC,1.50,WeatherDisplay:10.37,2013-06-07 18:58:00,
2013-06-07 15:03:00,67.0,41.9,28.81,SE,135,0.0,0.0,40,0.19,RA,OVC,1.51,WeatherDisplay:10.37,2013-06-07 19:03:00,
2013-06-07 15:08:00,67.0,42.5,28.81,ESE,112,1.2,1.2,41,0.18,RA,OVC,1.52,WeatherDisplay:10.37,2013-06-07 19:08:00,
2013-06-07 15:13:00,67.0,42.5,28.83,ENE,67,1.2,1.2,41,0.17,RA,OVC,1.52,WeatherDisplay:10.37,2013-06-07 19:13:00,
2013-06-07 15:19:00,67.0,41.9,28.83,NE,45,0.0,0.0,40,0.17,RA,OVC,1.54,WeatherDisplay:10.37,2013-06-07 19:19:00,
2013-06-07 15:25:00,67.0,41.9,28.83,SE,135,0.0,0.0,40,0.17,RA,OVC,1.55,WeatherDisplay:10.37,2013-06-07 19:25:00,
2013-06-07 15:30:00,67.0,41.9,28.83,SW,225,1.2,1.2,40,0.16,RA,OVC,1.56,WeatherDisplay:10.37,2013-06-07 19:30:00,
2013-06-07 15:35:00,67.0,41.9,28.83,NW,315,2.3,2.3,40,0.16,RA,OVC,1.58,WeatherDisplay:10.37,2013-06-07 19:35:00,
2013-06-07 15:40:00,67.0,41.9,28.83,South,180,3.5,3.5,40,0.14,RA,OVC,1.59,WeatherDisplay:10.37,2013-06-07 19:40:00,
2013-06-07 15:45:00,67.0,42.5,28.82,ENE,67,1.2,0.0,41,0.13,RA,OVC,1.61,WeatherDisplay:10.37,2013-06-07 19:45:00,
2013-06-07 15:50:00,67.0,43.1,28.82,West,270,3.5,3.5,42,0.13,RA,OVC,1.63,WeatherDisplay:10.37,2013-06-07 19:50:00,
2013-06-07 15:55:00,67.0,43.1,28.82,North,360,2.3,2.3,42,0.14,RA,OVC,1.64,WeatherDisplay:10.37,2013-06-07 19:55:00,
2013-06-07 16:00:00,67.0,43.1,28.82,ESE,112,3.5,3.5,42,0.15,RA,OVC,1.66,WeatherDisplay:10.37,2013-06-07 20:00:00,
2013-06-07 16:07:00,67.0,43.1,28.82,NE,45,1.2,1.2,42,0.17,RA,OVC,1.69,WeatherDisplay:10.37,2013-06-07 20:07:00,
2013-06-07 16:12:00,67.0,43.8,28.81,North,360,2.3,2.3,43,0.20,RA,OVC,1.72,WeatherDisplay:10.37,2013-06-07 20:12:00,
2013-06-07 16:17:00,67.0,44.4,28.81,NNE,22,1.0,1.0,44,0.21,RA,OVC,1.74,WeatherDisplay:10.37,2013-06-07 20:17:00,
2013-06-07 16:22:00,67.0,44.4,28.81,NNE,22,0.0,0.0,44,0.22,RA,OVC,1.76,WeatherDisplay:10.37,2013-06-07 20:22:00,
2013-06-07 16:27:00,66.0,44.0,28.81,SSE,157,1.2,1.2,45,0.22,RA,OVC,1.77,WeatherDisplay:10.37,2013-06-07 20:27:00,
2013-06-07 16:32:00,66.0,43.5,28.81,North,360,1.2,1.2,44,0.21,RA,OVC,1.78,WeatherDisplay:10.37,2013-06-07 20:32:00,
2013-06-07 16:38:00,66.0,43.5,28.81,South,180,0.0,0.0,44,0.21,RA,OVC,1.79,WeatherDisplay:10.37,2013-06-07 20:38:00,
2013-06-07 16:43:00,67.0,44.4,28.81,WNW,292,1.2,1.2,44,0.19,RA,OVC,1.79,WeatherDisplay:10.37,2013-06-07 20:43:00,
2013-06-07 16:48:00,67.0,44.4,28.81,SSW,202,4.0,4.0,44,0.17,,OVC,1.80,WeatherDisplay:10.37,2013-06-07 20:48:00,
2013-06-07 16:53:00,66.0,42.2,28.83,WNW,292,1.0,1.0,42,0.16,RA,OVC,1.80,WeatherDisplay:10.37,2013-06-07 20:53:00,
2013-06-07 16:58:00,66.0,42.2,28.83,WNW,292,3.5,3.5,42,0.15,RA,OVC,1.80,WeatherDisplay:10.37,2013-06-07 20:58:00,
2013-06-07 17:04:00,66.0,42.2,28.85,West,270,4.6,4.6,42,0.13,CLR,OVC,1.80,WeatherDisplay:10.37,2013-06-07 21:04:00,
2013-06-07 17:09:00,66.0,41.0,28.85,West,270,3.5,3.5,40,0.10,CLR,OVC,1.80,WeatherDisplay:10.37,2013-06-07 21:09:00,
2013-06-07 17:15:00,66.0,41.0,28.86,West,270,2.3,0.0,40,0.07,CLR,OVC,1.80,WeatherDisplay:10.37,2013-06-07 21:15:00,
2013-06-07 17:20:00,67.0,41.9,28.86,West,270,2.3,2.3,40,0.05,CLR,OVC,1.80,WeatherDisplay:10.37,2013-06-07 21:20:00,
2013-06-07 17:25:00,67.0,41.9,28.88,West,270,2.3,2.3,40,0.04,CLR,OVC,1.80,WeatherDisplay:10.37,2013-06-07 21:25:00,
2013-06-07 17:30:00,67.0,42.5,28.88,West,270,0.0,0.0,41,0.02,CLR,OVC,1.80,WeatherDisplay:10.37,2013-06-07 21:30:00,
2013-06-07 17:35:00,67.0,41.9,28.88,West,270,1.2,1.2,40,0.02,CLR,OVC,1.80,WeatherDisplay:10.37,2013-06-07 21:35:00,
2013-06-07 17:41:00,68.0,43.4,28.89,SE,135,2.3,0.0,41,0.01,CLR,OVC,1.80,WeatherDisplay:10.37,2013-06-07 21:41:00,
2013-06-07 17:46:00,68.0,43.4,28.89,NW,315,3.5,3.5,41,0.01,CLR,OVC,1.80,WeatherDisplay:10.37,2013-06-07 21:46:00,
2013-06-07 17:51:00,68.0,42.8,28.90,NW,315,2.3,0.0,40,0.00,CLR,OVC,1.80,WeatherDisplay:10.37,2013-06-07 21:51:00,
2013-06-07 17:56:00,68.0,42.8,28.90,West,270,0.0,0.0,40,0.00,CLR,OVC,1.80,WeatherDisplay:10.37,2013-06-07 21:56:00,
2013-06-07 18:01:00,68.0,42.1,28.91,WNW,292,0.0,0.0,39,0.00,CLR,OVC,1.80,WeatherDisplay:10.37,2013-06-07 22:01:00,
2013-06-07 18:07:00,68.0,42.1,28.91,WNW,292,1.2,1.2,39,0.00,CLR,OVC,1.80,WeatherDisplay:10.37,2013-06-07 22:07:00,
2013-06-07 18:12:00,68.0,42.1,28.91,West,270,0.0,0.0,39,0.00,CLR,OVC,1.80,WeatherDisplay:10.37,2013-06-07 22:12:00,
2013-06-07 18:17:00,68.0,42.1,28.91,WNW,292,2.0,2.0,39,0.00,CLR,OVC,1.80,WeatherDisplay:10.37,2013-06-07 22:17:00,
2013-06-07 18:23:00,68.0,42.1,28.92,West,270,0.0,0.0,39,0.00,CLR,OVC,1.80,WeatherDisplay:10.37,2013-06-07 22:23:00,
2013-06-07 18:28:00,68.0,42.1,28.92,West,270,3.5,3.5,39,0.00,CLR,OVC,1.80,WeatherDisplay:10.37,2013-06-07 22:28:00,
2013-06-07 18:33:00,68.0,41.4,28.92,WNW,292,0.0,0.0,38,0.00,CLR,OVC,1.80,WeatherDisplay:10.37,2013-06-07 22:33:00,
2013-06-07 18:38:00,68.0,41.4,28.92,West,270,0.0,0.0,38,0.00,CLR,OVC,1.80,WeatherDisplay:10.37,2013-06-07 22:38:00,
2013-06-07 18:44:00,68.0,41.4,28.93,West,270,2.3,2.3,38,0.00,CLR,OVC,1.80,WeatherDisplay:10.37,2013-06-07 22:44:00,
2013-06-07 18:49:00,69.0,41.6,28.93,West,270,0.0,0.0,37,0.00,CLR,OVC,1.80,WeatherDisplay:10.37,2013-06-07 22:49:00,
2013-06-07 18:54:00,69.0,41.6,28.93,West,270,0.0,0.0,37,0.00,CLR,OVC,1.80,WeatherDisplay:10.37,2013-06-07 22:54:00,
2013-06-07 18:59:00,69.0,40.9,28.93,West,270,0.0,0.0,36,0.00,CLR,OVC,1.80,WeatherDisplay:10.37,2013-06-07 22:59:00,
2013-06-07 19:04:00,69.0,41.6,28.95,West,270,0.0,0.0,37,0.00,CLR,OVC,1.80,WeatherDisplay:10.37,2013-06-07 23:04:00,
2013-06-07 19:10:00,69.0,40.2,28.95,West,270,0.0,0.0,35,0.00,CLR,OVC,1.80,WeatherDisplay:10.37,2013-06-07 23:10:00,
2013-06-07 19:15:00,69.0,41.6,28.95,West,270,0.0,0.0,37,0.00,CLR,OVC,1.80,WeatherDisplay:10.37,2013-06-07 23:15:00,
2013-06-07 19:20:00,69.0,45.6,28.95,SW,225,0.0,0.0,43,0.00,CLR,OVC,1.80,WeatherDisplay:10.37,2013-06-07 23:20:00,
2013-06-07 19:26:00,69.0,43.0,28.95,SW,225,0.0,0.0,39,0.00,CLR,OVC,1.80,WeatherDisplay:10.37,2013-06-07 23:26:00,
2013-06-07 19:31:00,69.0,44.3,28.96,SW,225,0.0,0.0,41,0.00,CLR,OVC,1.80,WeatherDisplay:10.37,2013-06-07 23:31:00,
2013-06-07 19:36:00,69.0,43.7,28.96,SW,225,0.0,0.0,40,0.00,CLR,OVC,1.80,WeatherDisplay:10.37,2013-06-07 23:36:00,
2013-06-07 19:41:00,69.0,43.7,28.97,SW,225,0.0,0.0,40,0.00,CLR,OVC,1.80,WeatherDisplay:10.37,2013-06-07 23:41:00,
2013-06-07 19:47:00,69.0,43.0,28.97,SW,225,0.0,0.0,39,0.00,CLR,OVC,1.80,WeatherDisplay:10.37,2013-06-07 23:47:00,
2013-06-07 19:52:00,69.0,43.7,28.97,SW,225,0.0,0.0,40,0.00,CLR,OVC,1.80,WeatherDisplay:10.37,2013-06-07 23:52:00,
2013-06-07 19:57:00,69.0,43.0,28.97,SW,225,0.0,0.0,39,0.00,CLR,OVC,1.80,WeatherDisplay:10.37,2013-06-07 23:57:00,
2013-06-07 20:03:00,69.0,43.7,28.98,SW,225,0.0,0.0,40,0.00,CLR,OVC,1.80,WeatherDisplay:10.37,2013-06-08 00:03:00,
2013-06-07 20:09:00,69.0,43.0,28.98,SW,225,0.0,0.0,39,0.00,CLR,OVC,1.80,WeatherDisplay:10.37,2013-06-08 00:09:00,
2013-06-07 20:14:00,69.0,43.0,28.99,SW,225,0.0,0.0,39,0.00,CLR,OVC,1.80,WeatherDisplay:10.37,2013-06-08 00:14:00,
2013-06-07 20:19:00,69.0,43.0,28.99,SW,225,0.0,0.0,39,0.00,CLR,OVC,1.80,WeatherDisplay:10.37,2013-06-08 00:19:00,
2013-06-07 20:25:00,69.0,42.3,28.99,SW,225,0.0,0.0,38,0.00,CLR,OVC,1.80,WeatherDisplay:10.37,2013-06-08 00:25:00,
2013-06-07 20:32:00,69.0,41.6,28.99,SW,225,0.0,0.0,37,0.00,CLR,OVC,1.80,WeatherDisplay:10.37,2013-06-08 00:32:00,
2013-06-07 20:37:00,69.0,41.6,28.99,SW,225,0.0,0.0,37,0.00,CLR,OVC,1.80,WeatherDisplay:10.37,2013-06-08 00:37:00,
2013-06-07 20:43:00,69.0,41.6,29.00,SW,225,0.0,0.0,37,0.00,CLR,OVC,1.80,WeatherDisplay:10.37,2013-06-08 00:43:00,
2013-06-07 20:48:00,69.0,41.6,29.00,SW,225,0.0,0.0,37,0.00,CLR,OVC,1.80,WeatherDisplay:10.37,2013-06-08 00:48:00,
2013-06-07 20:54:00,69.0,41.6,29.01,WSW,247,0.0,0.1,37,0.02,RA,OVC,1.82,WeatherDisplay:10.37,2013-06-08 00:54:00,
2013-06-07 20:59:00,69.0,41.6,29.01,WSW,247,2.3,2.3,37,0.08,RA,OVC,1.89,WeatherDisplay:10.37,2013-06-08 00:59:00,
2013-06-07 21:05:00,68.0,40.0,29.01,West,270,0.0,0.1,36,0.13,RA,OVC,1.94,WeatherDisplay:10.37,2013-06-08 01:05:00,
2013-06-07 21:10:00,68.0,38.6,29.01,West,270,0.0,0.0,34,0.22,RA,OVC,2.02,WeatherDisplay:10.37,2013-06-08 01:10:00,
2013-06-07 21:16:00,68.0,38.6,29.02,West,270,0.0,0.0,34,0.22,RA,OVC,2.02,WeatherDisplay:10.37,2013-06-08 01:16:00,
2013-06-07 21:21:00,68.0,41.4,29.03,West,270,0.0,0.0,38,0.22,,OVC,2.02,WeatherDisplay:10.37,2013-06-08 01:21:00,
2013-06-07 21:26:00,68.0,38.6,29.03,West,270,0.0,0.0,34,0.22,CLR,OVC,2.02,WeatherDisplay:10.37,2013-06-08 01:26:00,
2013-06-07 21:32:00,68.0,39.3,29.03,West,270,0.0,0.0,35,0.22,CLR,OVC,2.02,WeatherDisplay:10.37,2013-06-08 01:32:00,
2013-06-07 21:38:00,68.0,38.6,29.03,West,270,0.0,0.0,34,0.22,CLR,OVC,2.02,WeatherDisplay:10.37,2013-06-08 01:38:00,
2013-06-07 21:43:00,68.0,38.6,29.04,West,270,0.0,0.0,34,0.22,CLR,OVC,2.02,WeatherDisplay:10.37,2013-06-08 01:43:00,
2013-06-07 21:48:00,68.0,38.6,29.04,West,270,0.0,0.0,34,0.22,CLR,OVC,2.02,WeatherDisplay:10.37,2013-06-08 01:48:00,
2013-06-07 21:53:00,68.0,38.6,29.05,West,270,0.0,0.0,34,0.20,CLR,OVC,2.02,WeatherDisplay:10.37,2013-06-08 01:53:00,
2013-06-07 21:58:00,68.0,38.6,29.05,West,270,0.0,0.0,34,0.15,CLR,OVC,2.02,WeatherDisplay:10.37,2013-06-08 01:58:00,
2013-06-07 22:04:00,68.0,38.6,29.05,West,270,0.0,0.0,34,0.10,CLR,OVC,2.02,WeatherDisplay:10.37,2013-06-08 02:04:00,
2013-06-07 22:09:00,68.0,38.6,29.05,West,270,0.0,0.0,34,0.01,CLR,OVC,2.02,WeatherDisplay:10.37,2013-06-08 02:09:00,
2013-06-07 22:14:00,68.0,38.6,29.06,West,270,0.0,0.0,34,0.00,CLR,OVC,2.02,WeatherDisplay:10.37,2013-06-08 02:14:00,
2013-06-07 22:19:00,68.0,38.6,29.06,West,270,0.0,0.0,34,0.00,CLR,OVC,2.02,WeatherDisplay:10.37,2013-06-08 02:19:00,
2013-06-07 22:24:00,68.0,38.6,29.06,NW,315,0.0,0.0,34,0.00,CLR,OVC,2.02,WeatherDisplay:10.37,2013-06-08 02:24:00,
2013-06-07 22:30:00,68.0,38.6,29.06,NW,315,0.0,0.0,34,0.00,CLR,OVC,2.02,WeatherDisplay:10.37,2013-06-08 02:30:00,
2013-06-07 22:35:00,68.0,38.6,29.07,NW,315,0.0,0.0,34,0.00,CLR,OVC,2.02,WeatherDisplay:10.37,2013-06-08 02:35:00,
2013-06-07 22:42:00,68.0,38.6,29.07,NW,315,0.0,0.0,34,0.00,CLR,OVC,2.02,WeatherDisplay:10.37,2013-06-08 02:42:00,
2013-06-07 22:47:00,68.0,37.8,29.07,NW,315,0.0,0.0,33,0.00,CLR,OVC,2.02,WeatherDisplay:10.37,2013-06-08 02:47:00,
2013-06-07 22:52:00,68.0,37.8,29.07,NW,315,0.0,0.0,33,0.00,CLR,OVC,2.02,WeatherDisplay:10.37,2013-06-08 02:52:00,
2013-06-07 22:58:00,68.0,38.6,29.07,NW,315,0.0,0.0,34,0.00,CLR,OVC,2.02,WeatherDisplay:10.37,2013-06-08 02:58:00,
2013-06-07 23:03:00,68.0,38.6,29.07,NW,315,0.0,0.0,34,0.00,CLR,OVC,2.02,WeatherDisplay:10.37,2013-06-08 03:03:00,
2013-06-07 23:08:00,68.0,38.6,29.07,NW,315,0.0,0.0,34,0.00,CLR,OVC,2.02,WeatherDisplay:10.37,2013-06-08 03:08:00,
2013-06-07 23:14:00,68.0,37.8,29.07,NW,315,0.0,0.0,33,0.00,CLR,OVC,2.02,WeatherDisplay:10.37,2013-06-08 03:14:00,
2013-06-07 23:19:00,68.0,38.6,29.07,NW,315,0.0,0.0,34,0.00,CLR,OVC,2.02,WeatherDisplay:10.37,2013-06-08 03:19:00,
2013-06-07 23:25:00,68.0,37.8,29.07,NW,315,0.0,0.0,33,0.00,CLR,OVC,2.02,WeatherDisplay:10.37,2013-06-08 03:25:00,
2013-06-07 23:30:00,68.0,37.8,29.07,NW,315,0.0,0.0,33,0.00,CLR,OVC,2.02,WeatherDisplay:10.37,2013-06-08 03:30:00,
2013-06-07 23:35:00,68.0,38.6,29.07,NW,315,0.0,0.0,34,0.00,CLR,OVC,2.02,WeatherDisplay:10.37,2013-06-08 03:35:00,
2013-06-07 23:40:00,67.0,37.7,29.07,NW,315,0.0,0.0,34,0.00,CLR,OVC,2.02,WeatherDisplay:10.37,2013-06-08 03:40:00,
2013-06-07 23:45:00,67.0,36.9,29.07,NW,315,0.0,0.0,33,0.00,CLR,OVC,2.02,WeatherDisplay:10.37,2013-06-08 03:45:00,
2013-06-07 23:51:00,68.0,40.0,29.07,NW,315,0.0,0.0,36,0.00,CLR,OVC,2.02,WeatherDisplay:10.37,2013-06-08 03:51:00,
2013-06-07 23:56:00,67.0,36.9,29.07,NW,315,0.0,0.0,33,0.00,CLR,OVC,2.02,WeatherDisplay:10.37,2013-06-08 03:56:00,